createdAt,value
2023-07-30T00:02:01.895Z,8.95
2023-07-30T00:04:28.496Z,15.63
2023-07-30T00:06:55.130Z,7.22
2023-07-30T00:09:21.779Z,6.82
2023-07-30T00:11:48.375Z,19.50
2023-07-30T00:14:14.973Z,8.45
2023-07-30T00:16:41.561Z,5.85
2023-07-30T00:19:08.200Z,7.45
2023-07-30T00:21:34.917Z,5.25
2023-07-30T00:24:01.660Z,7.80
2023-07-30T00:26:28.246Z,7.22
2023-07-30T00:28:54.965Z,5.68
2023-07-30T00:31:21.572Z,13.50
2023-07-30T00:33:48.221Z,6.22
2023-07-30T00:36:14.801Z,6.03
2023-07-30T00:38:41.451Z,6.22
2023-07-30T00:41:08.087Z,7.68
2023-07-30T00:43:34.683Z,7.60
2023-07-30T00:46:01.312Z,5.85
2023-07-30T00:48:27.920Z,7.15
2023-07-30T00:50:54.492Z,7.22
2023-07-30T00:53:21.090Z,6.10
2023-07-30T00:55:47.732Z,11.07
2023-07-30T00:58:14.379Z,10.02
2023-07-30T01:00:40.996Z,10.23
2023-07-30T01:03:07.786Z,5.80
2023-07-30T01:05:34.386Z,7.20
2023-07-30T01:08:00.972Z,8.90
2023-07-30T01:10:27.632Z,5.55
2023-07-30T01:12:54.223Z,6.85
2023-07-30T01:15:20.879Z,6.53
2023-07-30T01:17:47.491Z,10.25
2023-07-30T01:20:14.167Z,8.30
2023-07-30T01:22:40.905Z,7.95
2023-07-30T01:25:07.500Z,9.75
2023-07-30T01:27:34.101Z,10.38
2023-07-30T01:30:00.781Z,8.93
2023-07-30T01:32:27.397Z,12.90
2023-07-30T01:34:54.003Z,15.05
2023-07-30T01:37:20.622Z,8.40
2023-07-30T01:39:47.265Z,9.20
2023-07-30T01:42:13.889Z,7.07
2023-07-30T01:44:40.545Z,12.30
2023-07-30T01:47:07.133Z,12.88
2023-07-30T01:49:33.773Z,11.57
2023-07-30T01:52:00.414Z,7.68
2023-07-30T01:54:27.016Z,8.05
2023-07-30T01:56:53.681Z,10.02
2023-07-30T01:59:20.314Z,11.63
2023-07-30T02:01:47.024Z,15.77
2023-07-30T02:04:13.624Z,9.02
2023-07-30T02:06:40.205Z,14.57
2023-07-30T02:09:06.814Z,10.60
2023-07-30T02:11:33.479Z,19.58
2023-07-30T02:14:00.108Z,18.02
2023-07-30T02:16:26.801Z,12.75
2023-07-30T02:18:53.453Z,14.13
2023-07-30T02:21:20.074Z,11.60
2023-07-30T02:23:46.695Z,12.45
2023-07-30T02:26:13.312Z,11.65
2023-07-30T02:28:39.989Z,16.13
2023-07-30T02:31:06.615Z,13.95
2023-07-30T02:33:33.286Z,17.02
2023-07-30T02:35:59.920Z,13.15
2023-07-30T02:38:26.516Z,15.52
2023-07-30T02:40:53.100Z,12.55
2023-07-30T02:43:19.744Z,13.45
2023-07-30T02:45:46.418Z,18.95
2023-07-30T02:48:13.092Z,17.92
2023-07-30T02:50:39.688Z,16.25
2023-07-30T02:53:06.256Z,11.70
2023-07-30T02:55:32.858Z,12.52
2023-07-30T02:57:59.464Z,12.18
2023-07-30T03:00:26.074Z,11.43
2023-07-30T03:02:52.717Z,11.48
2023-07-30T03:05:19.347Z,15.98
2023-07-30T03:07:45.911Z,14.07
2023-07-30T03:10:12.490Z,13.93
2023-07-30T03:12:39.117Z,11.57
2023-07-30T03:15:05.710Z,12.77
2023-07-30T03:17:32.362Z,11.52
2023-07-30T03:19:59.004Z,10.85
2023-07-30T03:22:25.645Z,11.60
2023-07-30T03:24:52.228Z,10.30
2023-07-30T03:27:18.821Z,9.38
2023-07-30T03:29:45.471Z,9.60
2023-07-30T03:32:12.087Z,9.27
2023-07-30T03:34:38.703Z,10.63
2023-07-30T03:37:05.310Z,8.38
2023-07-30T03:39:31.892Z,11.18
2023-07-30T03:41:58.500Z,19.20
2023-07-30T03:44:25.189Z,17.73
2023-07-30T03:46:51.921Z,18.67
2023-07-30T03:49:18.645Z,21.38
2023-07-30T03:51:45.281Z,20.92
2023-07-30T03:54:11.942Z,28.38
2023-07-30T03:56:38.541Z,22.83
2023-07-30T03:59:05.183Z,25.02
2023-07-30T04:01:31.825Z,29.48
2023-07-30T04:03:58.527Z,22.17
2023-07-30T04:06:25.154Z,18.50
2023-07-30T04:08:51.810Z,17.58
2023-07-30T04:11:18.434Z,18.67
2023-07-30T04:13:45.086Z,18.90
2023-07-30T04:16:11.737Z,15.48
2023-07-30T04:18:38.460Z,9.32
2023-07-30T04:21:05.084Z,16.48
2023-07-30T04:23:31.678Z,9.75
2023-07-30T04:25:58.295Z,6.40
2023-07-30T04:28:24.968Z,13.10
2023-07-30T04:30:51.630Z,9.35
2023-07-30T04:33:18.270Z,9.07
2023-07-30T04:35:44.872Z,7.78
2023-07-30T04:38:11.492Z,7.63
2023-07-30T04:40:38.137Z,9.70
2023-07-30T04:43:04.789Z,10.85
2023-07-30T04:45:31.431Z,9.73
2023-07-30T04:47:58.086Z,7.78
2023-07-30T04:50:24.781Z,12.30
2023-07-30T04:52:51.378Z,9.43
2023-07-30T04:55:17.977Z,12.38
2023-07-30T04:57:44.601Z,10.60
2023-07-30T05:00:11.201Z,12.25
2023-07-30T05:02:37.844Z,13.93
2023-07-30T05:05:04.496Z,12.23
2023-07-30T05:07:31.069Z,9.82
2023-07-30T05:09:57.669Z,12.15
2023-07-30T05:12:24.247Z,11.00
2023-07-30T05:14:50.853Z,11.75
2023-07-30T05:17:17.499Z,10.10
2023-07-30T05:19:44.147Z,9.10
2023-07-30T05:22:10.766Z,11.43
2023-07-30T05:24:37.421Z,11.68
2023-07-30T05:27:04.043Z,9.65
2023-07-30T05:29:31.241Z,10.23
2023-07-30T05:31:58.170Z,12.68
2023-07-30T05:34:24.809Z,14.23
2023-07-30T05:36:51.616Z,12.00
2023-07-30T05:39:18.273Z,13.18
2023-07-30T05:41:44.914Z,12.27
2023-07-30T05:44:11.560Z,13.82
2023-07-30T05:46:38.157Z,12.60
2023-07-30T05:49:04.802Z,13.77
2023-07-30T05:51:31.504Z,16.27
2023-07-30T05:53:58.087Z,13.55
2023-07-30T05:56:24.678Z,15.18
2023-07-30T05:58:51.254Z,22.02
2023-07-30T06:01:17.952Z,25.10
2023-07-30T06:03:44.610Z,13.65
2023-07-30T06:06:11.254Z,14.13
2023-07-30T06:08:37.897Z,12.45
2023-07-30T06:11:04.560Z,12.85
2023-07-30T06:13:31.180Z,15.70
2023-07-30T06:15:57.898Z,13.23
2023-07-30T06:18:24.647Z,13.30
2023-07-30T06:20:51.271Z,13.30
2023-07-30T06:23:17.881Z,12.18
2023-07-30T06:25:44.510Z,12.35
2023-07-30T06:28:11.139Z,17.42
2023-07-30T06:30:37.812Z,14.38
2023-07-30T06:33:04.510Z,15.18
2023-07-30T06:35:31.166Z,23.45
2023-07-30T06:37:57.747Z,12.70
2023-07-30T06:40:24.421Z,13.65
2023-07-30T06:42:51.039Z,11.70
2023-07-30T06:45:17.645Z,12.52
2023-07-30T06:47:44.247Z,18.92
2023-07-30T06:50:11.067Z,12.63
2023-07-30T06:52:37.766Z,13.43
2023-07-30T06:55:04.425Z,13.43
2023-07-30T06:57:31.010Z,13.75
2023-07-30T06:59:57.592Z,11.73
2023-07-30T07:02:24.213Z,11.45
2023-07-30T07:04:50.884Z,11.75
2023-07-30T07:07:17.513Z,14.98
2023-07-30T07:09:44.126Z,12.48
2023-07-30T07:12:10.695Z,10.63
2023-07-30T07:14:37.336Z,10.13
2023-07-30T07:17:04.002Z,12.75
2023-07-30T07:19:30.750Z,11.32
2023-07-30T07:21:57.365Z,11.55
2023-07-30T07:24:23.989Z,13.98
2023-07-30T07:26:50.706Z,13.20
2023-07-30T07:29:17.339Z,11.90
2023-07-30T07:31:44.160Z,14.93
2023-07-30T07:34:10.894Z,12.27
2023-07-30T07:36:37.534Z,12.40
2023-07-30T07:39:04.124Z,13.75
2023-07-30T07:41:30.774Z,10.57
2023-07-30T07:43:57.380Z,11.95
2023-07-30T07:46:24.121Z,13.90
2023-07-30T07:48:50.747Z,15.57
2023-07-30T07:51:17.519Z,16.38
2023-07-30T07:53:44.124Z,16.75
2023-07-30T07:56:10.805Z,12.82
2023-07-30T07:58:37.581Z,13.45
2023-07-30T08:01:04.226Z,14.57
2023-07-30T08:03:31.066Z,15.20
2023-07-30T08:05:57.843Z,11.02
2023-07-30T08:08:26.456Z,12.82
2023-07-30T08:10:53.444Z,12.05
2023-07-30T08:13:20.028Z,10.68
2023-07-30T08:15:46.605Z,11.88
2023-07-30T08:18:13.244Z,11.95
2023-07-30T08:20:39.923Z,13.70
2023-07-30T08:23:06.579Z,11.30
2023-07-30T08:25:33.259Z,10.90
2023-07-30T08:27:59.872Z,10.00
2023-07-30T08:30:26.504Z,22.50
2023-07-30T08:32:53.214Z,11.68
2023-07-30T08:35:19.969Z,13.15
2023-07-30T08:37:46.551Z,10.52
2023-07-30T08:40:15.108Z,11.05
2023-07-30T08:42:42.912Z,12.70
2023-07-30T08:45:09.598Z,8.77
2023-07-30T08:47:36.281Z,7.55
2023-07-30T08:50:02.950Z,7.75
2023-07-30T08:52:29.645Z,10.65
2023-07-30T08:54:56.302Z,8.57
2023-07-30T08:57:23.055Z,22.40
2023-07-30T08:59:49.680Z,9.70
2023-07-30T09:02:16.362Z,6.70
2023-07-30T09:04:43.088Z,8.02
2023-07-30T09:07:09.720Z,6.43
2023-07-30T09:09:36.344Z,7.57
2023-07-30T09:12:03.004Z,7.88
2023-07-30T09:14:29.616Z,14.15
2023-07-30T09:16:56.252Z,9.45
2023-07-30T09:19:22.921Z,9.27
2023-07-30T09:21:49.578Z,8.30
2023-07-30T09:24:16.240Z,7.07
2023-07-30T09:26:42.851Z,10.77
2023-07-30T09:29:09.468Z,8.70
2023-07-30T09:31:36.087Z,6.90
2023-07-30T09:34:02.700Z,7.13
2023-07-30T09:36:29.292Z,6.55
2023-07-30T09:38:55.904Z,6.82
2023-07-30T09:41:22.502Z,5.68
2023-07-30T09:43:49.132Z,6.93
2023-07-30T09:46:15.800Z,8.45
2023-07-30T09:48:42.466Z,6.30
2023-07-30T09:51:09.141Z,10.00
2023-07-30T09:53:36.268Z,7.65
2023-07-30T09:56:03.077Z,7.55
2023-07-30T09:58:29.789Z,6.25
2023-07-30T10:00:56.467Z,8.18
2023-07-30T10:03:23.339Z,5.65
2023-07-30T10:05:50.031Z,8.48
2023-07-30T10:08:16.664Z,6.88
2023-07-30T10:10:43.280Z,7.00
2023-07-30T10:13:09.888Z,8.55
2023-07-30T10:15:36.497Z,6.72
2023-07-30T10:18:04.875Z,7.07
2023-07-30T10:20:31.836Z,8.50
2023-07-30T10:22:58.468Z,13.00
2023-07-30T10:25:25.095Z,6.80
2023-07-30T10:27:51.727Z,7.53
2023-07-30T10:30:18.466Z,9.18
2023-07-30T10:32:45.222Z,7.30
2023-07-30T10:35:11.854Z,10.70
2023-07-30T10:37:38.463Z,8.15
2023-07-30T10:40:05.064Z,9.02
2023-07-30T10:42:31.689Z,7.70
2023-07-30T10:44:58.309Z,7.55
2023-07-30T10:47:36.196Z,8.23
2023-07-30T10:50:03.723Z,17.38
2023-07-30T10:52:30.329Z,10.10
2023-07-30T10:54:56.993Z,8.77
2023-07-30T10:57:23.711Z,10.48
2023-07-30T10:59:50.339Z,12.13
2023-07-30T11:02:17.049Z,11.02
2023-07-30T11:04:43.684Z,6.70
2023-07-30T11:07:10.272Z,13.30
2023-07-30T11:09:36.898Z,17.27
2023-07-30T11:12:03.545Z,9.63
2023-07-30T11:14:30.222Z,5.45
2023-07-30T11:16:56.864Z,6.50
2023-07-30T11:19:23.463Z,7.70
2023-07-30T11:21:52.435Z,15.88
2023-07-30T11:24:20.712Z,6.60
2023-07-30T11:26:47.354Z,6.68
2023-07-30T11:29:14.071Z,8.45
2023-07-30T11:31:41.128Z,5.28
2023-07-30T11:34:08.039Z,7.80
2023-07-30T11:36:34.629Z,4.60
2023-07-30T11:39:01.254Z,6.70
2023-07-30T11:41:27.875Z,4.50
2023-07-30T11:43:54.516Z,7.30
2023-07-30T11:46:21.119Z,6.72
2023-07-30T11:48:47.802Z,7.78
2023-07-30T11:51:14.388Z,6.60
2023-07-30T11:53:41.025Z,5.00
2023-07-30T11:56:07.606Z,4.70
2023-07-30T11:58:34.204Z,4.70
2023-07-30T12:01:00.776Z,8.27
2023-07-30T12:03:28.349Z,3.83
2023-07-30T12:05:55.092Z,5.32
2023-07-30T12:08:21.727Z,6.15
2023-07-30T12:10:48.346Z,14.38
2023-07-30T12:13:14.982Z,33.92
2023-07-30T12:15:41.591Z,16.20
2023-07-30T12:18:08.254Z,7.97
2023-07-30T12:20:34.961Z,19.42
2023-07-30T12:23:01.556Z,15.35
2023-07-30T12:25:28.216Z,14.07
2023-07-30T12:27:54.845Z,15.82
2023-07-30T12:30:21.530Z,12.82
2023-07-30T12:32:48.214Z,11.00
2023-07-30T12:35:14.872Z,5.65
2023-07-30T12:37:41.460Z,12.98
2023-07-30T12:40:08.165Z,8.45
2023-07-30T12:42:34.874Z,6.97
2023-07-30T12:45:01.485Z,9.13
2023-07-30T12:47:28.184Z,6.47
2023-07-30T12:49:54.826Z,9.90
2023-07-30T12:52:21.536Z,9.38
2023-07-30T12:54:48.164Z,4.53
2023-07-30T12:57:14.768Z,12.75
2023-07-30T12:59:41.406Z,16.83
2023-07-30T13:02:11.042Z,7.40
2023-07-30T13:04:37.712Z,4.80
2023-07-30T13:07:04.324Z,4.00
2023-07-30T13:09:30.967Z,7.13
2023-07-30T13:11:57.612Z,5.32
2023-07-30T13:14:24.254Z,5.85
2023-07-30T13:16:50.910Z,5.47
2023-07-30T13:19:17.545Z,7.03
2023-07-30T13:21:44.171Z,7.90
2023-07-30T13:24:10.779Z,10.40
2023-07-30T13:26:37.428Z,9.18
2023-07-30T13:29:04.122Z,12.77
2023-07-30T13:31:30.824Z,10.38
2023-07-30T13:33:57.548Z,10.18
2023-07-30T13:36:24.200Z,4.63
2023-07-30T13:38:50.884Z,9.93
2023-07-30T13:41:17.530Z,13.93
2023-07-30T13:43:44.147Z,13.35
2023-07-30T13:46:10.843Z,15.35
2023-07-30T13:48:37.545Z,10.25
2023-07-30T13:51:04.234Z,11.38
2023-07-30T13:53:30.901Z,10.07
2023-07-30T13:55:57.493Z,10.13
2023-07-30T13:58:24.082Z,20.83
2023-07-30T14:00:50.754Z,8.52
2023-07-30T14:03:17.408Z,13.52
2023-07-30T14:05:44.126Z,14.88
2023-07-30T14:08:10.704Z,17.50
2023-07-30T14:10:37.350Z,11.25
2023-07-30T14:13:03.932Z,8.40
2023-07-30T14:15:30.500Z,9.68
2023-07-30T14:17:57.189Z,7.43
2023-07-30T14:20:23.841Z,9.73
2023-07-30T14:22:50.516Z,4.55
2023-07-30T14:25:17.243Z,4.35
2023-07-30T14:27:43.882Z,2.90
2023-07-30T14:30:10.506Z,2.83
2023-07-30T14:32:37.162Z,3.50
2023-07-30T14:35:03.810Z,2.55
2023-07-30T14:37:30.480Z,2.58
2023-07-30T14:39:57.061Z,8.07
2023-07-30T14:42:23.680Z,4.32
2023-07-30T14:44:50.331Z,2.95
2023-07-30T14:47:16.965Z,2.45
2023-07-30T14:49:43.619Z,2.35
2023-07-30T14:52:10.274Z,6.78
2023-07-30T14:54:36.927Z,2.33
2023-07-30T14:57:03.555Z,1.90
2023-07-30T14:59:30.204Z,2.85
2023-07-30T15:01:56.863Z,2.97
2023-07-30T15:04:23.484Z,2.60
2023-07-30T15:06:50.089Z,2.83
2023-07-30T15:09:16.763Z,2.67
2023-07-30T15:11:43.396Z,4.07
2023-07-30T15:14:09.984Z,3.80
2023-07-30T15:16:36.884Z,4.07
2023-07-30T15:19:03.732Z,10.98
2023-07-30T15:21:30.391Z,4.95
2023-07-30T15:23:56.980Z,3.90
2023-07-30T15:26:23.746Z,3.47
2023-07-30T15:28:50.356Z,4.60
2023-07-30T15:31:17.029Z,5.13
2023-07-30T15:33:43.701Z,2.42
2023-07-30T15:36:10.304Z,5.60
2023-07-30T15:38:36.946Z,4.88
2023-07-30T15:41:03.572Z,3.03
2023-07-30T15:43:30.209Z,3.60
2023-07-30T15:45:56.824Z,6.90
2023-07-30T15:48:23.473Z,1.90
2023-07-30T15:50:50.087Z,1.92
2023-07-30T15:53:16.871Z,1.92
2023-07-30T15:55:43.458Z,1.70
2023-07-30T15:58:10.107Z,1.88
2023-07-30T16:00:36.704Z,1.85
2023-07-30T16:03:03.439Z,1.98
2023-07-30T16:05:30.088Z,4.18
2023-07-30T16:07:56.715Z,3.38
2023-07-30T16:10:23.366Z,2.00
2023-07-30T16:12:49.954Z,1.67
2023-07-30T16:15:16.585Z,2.38
2023-07-30T16:17:43.274Z,2.08
2023-07-30T16:20:09.948Z,2.20
2023-07-30T16:22:36.543Z,2.03
2023-07-30T16:25:03.212Z,2.38
2023-07-30T16:27:29.840Z,5.53
2023-07-30T16:29:56.537Z,1.77
2023-07-30T16:32:23.198Z,1.52
2023-07-30T16:34:49.894Z,1.90
2023-07-30T16:37:16.525Z,1.70
2023-07-30T16:39:43.157Z,2.17
2023-07-30T16:42:09.844Z,2.28
2023-07-30T16:44:36.470Z,1.80
2023-07-30T16:47:03.096Z,2.15
2023-07-30T16:49:29.749Z,1.55
2023-07-30T16:51:56.376Z,1.85
2023-07-30T16:54:23.076Z,2.03
2023-07-30T16:56:49.751Z,2.13
2023-07-30T16:59:16.351Z,1.55
2023-07-30T17:01:43.021Z,2.38
2023-07-30T17:04:09.718Z,1.95
2023-07-30T17:06:36.583Z,1.70
2023-07-30T17:09:03.357Z,1.73
2023-07-30T17:11:29.997Z,2.75
2023-07-30T17:13:56.655Z,2.72
2023-07-30T17:16:23.295Z,3.50
2023-07-30T17:18:49.939Z,1.75
2023-07-30T17:21:16.587Z,4.13
2023-07-30T17:23:43.410Z,2.22
2023-07-30T17:26:10.048Z,1.70
2023-07-30T17:28:36.689Z,1.70
2023-07-30T17:31:03.327Z,1.75
2023-07-30T17:33:30.053Z,2.65
2023-07-30T17:35:56.733Z,2.20
2023-07-30T17:38:23.341Z,4.70
2023-07-30T17:40:49.958Z,2.10
2023-07-30T17:43:16.584Z,2.90
2023-07-30T17:45:43.216Z,1.90
2023-07-30T17:48:09.858Z,1.90
2023-07-30T17:50:36.515Z,2.78
2023-07-30T17:53:03.110Z,3.95
2023-07-30T17:55:29.729Z,1.92
2023-07-30T17:57:56.302Z,2.22
2023-07-30T18:00:22.957Z,2.20
2023-07-30T18:02:49.625Z,6.15
2023-07-30T18:05:18.558Z,8.38
2023-07-30T18:07:46.013Z,8.15
2023-07-30T18:10:12.705Z,8.27
2023-07-30T18:12:39.317Z,10.40
2023-07-30T18:15:05.951Z,6.55
2023-07-30T18:17:32.686Z,5.80
2023-07-30T18:19:59.297Z,7.40
2023-07-30T18:22:25.901Z,9.25
2023-07-30T18:24:52.535Z,15.55
2023-07-30T18:27:19.190Z,9.75
2023-07-30T18:29:45.824Z,11.07
2023-07-30T18:32:12.497Z,11.35
2023-07-30T18:34:39.080Z,10.40
2023-07-30T18:37:05.702Z,16.30
2023-07-30T18:39:32.318Z,13.48
2023-07-30T18:41:58.989Z,18.08
2023-07-30T18:44:25.575Z,19.45
2023-07-30T18:46:52.228Z,18.38
2023-07-30T18:49:18.888Z,14.55
2023-07-30T18:51:45.488Z,10.27
2023-07-30T18:54:12.138Z,13.85
2023-07-30T18:56:38.990Z,9.77
2023-07-30T18:59:05.859Z,11.05
2023-07-30T19:01:32.495Z,6.45
2023-07-30T19:03:59.144Z,6.10
2023-07-30T19:06:25.784Z,6.28
2023-07-30T19:08:52.434Z,4.13
2023-07-30T19:11:19.074Z,6.13
2023-07-30T19:13:45.797Z,3.83
2023-07-30T19:16:12.440Z,7.90
2023-07-30T19:18:39.201Z,5.63
2023-07-30T19:21:05.906Z,10.32
2023-07-30T19:23:32.586Z,6.03
2023-07-30T19:25:59.225Z,3.88
2023-07-30T19:28:26.025Z,6.20
2023-07-30T19:30:52.686Z,3.47
2023-07-30T19:33:19.500Z,3.95
2023-07-30T19:35:51.160Z,2.92
2023-07-30T19:38:18.541Z,3.78
2023-07-30T19:40:45.151Z,5.43
2023-07-30T19:43:11.836Z,3.67
2023-07-30T19:45:38.478Z,2.60
2023-07-30T19:48:05.433Z,3.83
2023-07-30T19:50:38.062Z,7.60
2023-07-30T19:53:08.783Z,5.10
2023-07-30T19:55:35.430Z,4.65
2023-07-30T19:58:02.073Z,2.80
2023-07-30T20:00:29.848Z,4.75
2023-07-30T20:02:56.519Z,5.43
2023-07-30T20:05:23.304Z,4.53
2023-07-30T20:07:49.943Z,5.80
2023-07-30T20:10:16.579Z,3.13
2023-07-30T20:12:43.199Z,18.00
2023-07-30T20:15:09.828Z,29.15
2023-07-30T20:17:36.510Z,24.80
2023-07-30T20:20:03.163Z,20.83
2023-07-30T20:22:29.790Z,12.98
2023-07-30T20:24:56.381Z,11.65
2023-07-30T20:27:22.990Z,17.05
2023-07-30T20:29:49.575Z,6.80
2023-07-30T20:32:16.216Z,7.57
2023-07-30T20:34:42.864Z,7.55
2023-07-30T20:37:09.554Z,10.13
2023-07-30T20:39:36.156Z,15.65
2023-07-30T20:42:02.868Z,24.90
2023-07-30T20:44:29.494Z,17.02
2023-07-30T20:46:56.138Z,25.02
2023-07-30T20:49:22.749Z,5.45
2023-07-30T20:51:49.377Z,14.07
2023-07-30T20:54:16.014Z,18.73
2023-07-30T20:56:42.619Z,14.10
2023-07-30T20:59:09.719Z,15.98
2023-07-30T21:01:36.338Z,9.93
2023-07-30T21:04:03.015Z,5.20
2023-07-30T21:06:29.598Z,5.75
2023-07-30T21:08:56.254Z,5.72
2023-07-30T21:11:22.864Z,8.52
2023-07-30T21:13:49.485Z,7.30
2023-07-30T21:16:16.174Z,4.97
2023-07-30T21:18:42.799Z,6.15
2023-07-30T21:21:09.409Z,6.68
2023-07-30T21:23:36.030Z,7.25
2023-07-30T21:26:02.748Z,9.23
2023-07-30T21:28:29.401Z,9.25
2023-07-30T21:30:56.098Z,9.48
2023-07-30T21:33:22.762Z,6.32
2023-07-30T21:35:49.442Z,7.72
2023-07-30T21:38:16.074Z,8.80
2023-07-30T21:40:42.655Z,12.05
2023-07-30T21:43:09.321Z,5.05
2023-07-30T21:45:35.956Z,6.28
2023-07-30T21:48:02.676Z,6.82
2023-07-30T21:50:29.296Z,7.90
2023-07-30T21:52:55.935Z,5.85
2023-07-30T21:55:22.525Z,6.95
2023-07-30T21:57:49.190Z,7.20
2023-07-30T22:00:15.854Z,8.55
2023-07-30T22:02:42.663Z,8.13
2023-07-30T22:05:09.380Z,6.03
2023-07-30T22:07:36.018Z,8.95
2023-07-30T22:10:02.716Z,8.77
2023-07-30T22:12:29.368Z,11.82
2023-07-30T22:14:55.967Z,9.57
2023-07-30T22:17:22.588Z,9.32
2023-07-30T22:19:49.213Z,5.22
2023-07-30T22:22:15.833Z,7.97
2023-07-30T22:24:42.468Z,4.75
2023-07-30T22:27:09.088Z,4.90
2023-07-30T22:29:35.699Z,5.03
2023-07-30T22:32:02.333Z,8.55
2023-07-30T22:34:28.958Z,5.80
2023-07-30T22:36:55.676Z,3.38
2023-07-30T22:39:22.286Z,4.18
2023-07-30T22:41:48.881Z,5.82
2023-07-30T22:44:15.495Z,6.75
2023-07-30T22:46:42.359Z,4.15
2023-07-30T22:49:09.250Z,6.05
2023-07-30T22:51:35.834Z,4.97
2023-07-30T22:54:02.406Z,14.98
2023-07-30T22:56:29.044Z,6.40
2023-07-30T22:58:55.658Z,7.00
2023-07-30T23:01:22.335Z,6.05
2023-07-30T23:03:49.121Z,6.35
2023-07-30T23:06:15.827Z,5.20
2023-07-30T23:08:42.481Z,4.68
2023-07-30T23:11:09.100Z,5.35
2023-07-30T23:13:35.748Z,4.20
2023-07-30T23:16:02.428Z,6.65
2023-07-30T23:18:29.133Z,4.97
2023-07-30T23:20:55.824Z,6.85
2023-07-30T23:23:22.508Z,3.55
2023-07-30T23:25:49.168Z,6.30
2023-07-30T23:28:15.782Z,6.55
2023-07-30T23:30:42.443Z,5.75
2023-07-30T23:33:09.054Z,8.00
2023-07-30T23:35:35.771Z,8.18
2023-07-30T23:38:02.391Z,4.63
2023-07-30T23:40:29.021Z,4.30
2023-07-30T23:42:55.617Z,6.07
2023-07-30T23:45:22.273Z,3.83
2023-07-30T23:47:48.890Z,6.43
2023-07-30T23:50:15.764Z,12.63
2023-07-30T23:52:43.085Z,31.20
2023-07-30T23:55:09.794Z,5.30
2023-07-30T23:57:36.376Z,4.47
